Albany, Oregon
Current Conditions -  °F | °C
As of 4:55 PM on Thursday 30 Oct 2014 (Local Time) from KCVO Reporting Station
Overcast Overcast  
Wind Chill: 61°   Ceiling: 2700
Heat Index: 61°   Visibility: 5mi
Dew Point: 57°   Wind: 3mph
Humidity: 88%   Direction: 240°WSW
Pressure: 29.83"   Gusts: NA
Location:  44.64°N, 123.1°W
Report Text: KCVO 302355Z AUTO 24003KT 5SM FEW007 SCT016 OVC027 16/14 A2983 RMK AO1 60003 10160 20140 401600130 57007
Loading
Personal Weather Stations






























Interactive Weather Map
Tropical Storm Tracking
New forecast layout! Learn more

10-Day Weather Forecast

Advertisements
Track Severe Weather on mobile